Weather History for Crystal River, FL

Change the Weather History Date:

Saturday, November 24, 2012

  Actual Average (KBKV) Record (KBKV)
Temperature  
Mean Temperature 54 °F -  
Max Temperature 68 °F 73 °F 84 °F (2001)
Min Temperature 39 °F 47 °F 30 °F (2002)
Degree Days  
Heating Degree Days 10    
Growing Degree Days 4 (Base 50)    
Moisture  
Dew Point 47 °F    
Average Humidity 85    
Maximum Humidity 100    
Minimum Humidity 56    
Precipitation  
Precipitation 0.00 in - - ()
Sea Level Pressure  
Sea Level Pressure 30.09 in    
Wind  
Wind Speed 2 mph (WNW)    
Max Wind Speed 10 mph    
Max Gust Speed 16 mph    
Visibility 9 miles    
Events Fog    
Averages and records for this station are not official NWS values.
T = Trace of Precipitation, MM = Missing Value Source: NWS Daily Summary

Daily Weather History Graph

Daily Weather History Graph

Search for Another Location

Airport:

Trip Planner

Search our weather history database for the weather conditions in past years. The results will help you decide how hot, cold, wet, or windy it might be!

Date:

Astronomy

Nov. 24, 2012 Rise Set
Actual Time 7:00 AM EST 5:33 PM EST
Civil Twilight 6:35 AM EST 5:58 PM EST
Nautical Twilight 6:06 AM EST 6:27 PM EST
Astronomical Twilight 5:38 AM EST 6:55 PM EST
Moon 3:05 PM EST (11/24) 3:30 AM EST (11/24)
Length of Visible Light 11h 23m
Length of Day
10h 32m
Waxing Gibbous, 87% of the Moon is Illuminated
Nov 24
Waxing Gibbous
Nov 28
Full
Dec 6
Last Quarter
Dec 13
New
Dec 20
First Quarter

Hourly Weather History & Observations

Time (EST) Temp. Dew Point Humidity Pressure Visibility Wind Dir Wind Speed Gust Speed Precip Events Conditions
12:15 AM 44.6 °F 42.8 °F 93% 30.10 in 10.0 mi Calm Calm - N/A   Scattered Clouds
12:35 AM 42.8 °F 42.8 °F 100% 30.09 in 10.0 mi Calm Calm - N/A   Scattered Clouds
12:55 AM 42.8 °F 42.8 °F 100% 30.09 in 10.0 mi Calm Calm - N/A   Clear
1:15 AM 42.8 °F 42.8 °F 100% 30.09 in 10.0 mi Calm Calm - N/A   Clear
1:35 AM 42.8 °F 42.8 °F 100% 30.09 in 10.0 mi Calm Calm - N/A   Clear
1:55 AM 42.8 °F 42.8 °F 100% 30.08 in 10.0 mi Calm Calm - N/A   Scattered Clouds
2:15 AM 42.8 °F 42.8 °F 100% 30.08 in 10.0 mi Calm Calm - N/A   Mostly Cloudy
2:35 AM 42.8 °F 42.8 °F 100% 30.07 in 10.0 mi Calm Calm - N/A   Scattered Clouds
2:55 AM 42.8 °F 42.8 °F 100% 30.07 in 10.0 mi Calm Calm - N/A   Mostly Cloudy
3:15 AM 42.8 °F 42.8 °F 100% 30.06 in 5.0 mi Calm Calm - N/A   Overcast
3:35 AM 42.8 °F 42.8 °F 100% 30.06 in 5.0 mi Calm Calm - N/A   Overcast
3:55 AM 42.8 °F 42.8 °F 100% 30.06 in 2.5 mi Calm Calm - N/A   Overcast
4:15 AM 42.8 °F 42.8 °F 100% 30.06 in 0.8 mi Calm Calm - N/A   Overcast
4:55 AM 42.8 °F 42.8 °F 100% 30.06 in 7.0 mi Calm Calm - N/A   Overcast
5:15 AM 42.8 °F 42.8 °F 100% 30.06 in 7.0 mi Calm Calm - N/A   Overcast
5:35 AM 42.8 °F 42.8 °F 100% 30.06 in 7.0 mi Calm Calm - N/A   Overcast
5:55 AM 42.8 °F 42.8 °F 100% 30.07 in 7.0 mi Calm Calm - N/A   Overcast
6:15 AM 42.8 °F 42.8 °F 100% 30.08 in 7.0 mi Calm Calm - N/A   Overcast
6:35 AM 42.8 °F 42.8 °F 100% 30.08 in 1.0 mi Calm Calm - N/A   Overcast
6:55 AM 42.8 °F 42.8 °F 100% 30.09 in 0.2 mi Calm Calm - N/A Fog Fog
7:15 AM 42.8 °F 42.8 °F 100% 30.09 in 0.2 mi Calm Calm - N/A Fog Fog
7:35 AM 44.6 °F 44.6 °F 100% 30.10 in 0.2 mi Calm Calm - N/A Fog Fog
7:55 AM 46.4 °F 46.4 °F 100% 30.11 in 0.2 mi Calm Calm - N/A Fog Fog
8:15 AM 48.2 °F 48.2 °F 100% 30.11 in 7.0 mi Calm Calm - N/A   Scattered Clouds
8:35 AM 51.8 °F 50.0 °F 94% 30.11 in 10.0 mi Calm Calm - N/A   Clear
8:55 AM 55.4 °F 53.6 °F 94% 30.12 in 10.0 mi Calm Calm - N/A   Clear
9:15 AM 60.8 °F 53.6 °F 77% 30.13 in 10.0 mi NNW 8.1 mph - N/A   Clear
9:35 AM 60.8 °F 53.6 °F 77% 30.14 in 10.0 mi NNW 8.1 mph - N/A   Clear
9:55 AM 62.6 °F 51.8 °F 68% 30.14 in 10.0 mi North 9.2 mph 16.1 mph N/A   Mostly Cloudy
10:15 AM 62.6 °F 51.8 °F 68% 30.14 in 10.0 mi North 4.6 mph - N/A   Scattered Clouds
10:35 AM 64.4 °F 51.8 °F 64% 30.13 in 10.0 mi NNW 4.6 mph - N/A   Clear
10:55 AM 64.4 °F 51.8 °F 64% 30.12 in 10.0 mi NNW 3.5 mph - N/A   Clear
11:15 AM 64.4 °F 51.8 °F 64% 30.11 in 10.0 mi NNE 4.6 mph - N/A   Clear
11:35 AM 68.0 °F 51.8 °F 56% 30.10 in 10.0 mi WNW 3.5 mph - N/A   Clear
11:55 AM 66.2 °F 53.6 °F 64% 30.09 in 10.0 mi West 4.6 mph - N/A   Clear
12:15 PM 68.0 °F 53.6 °F 60% 30.08 in 10.0 mi NNW 3.5 mph - N/A   Clear
12:35 PM 68.0 °F 53.6 °F 60% 30.07 in 10.0 mi West 9.2 mph - N/A   Clear
12:55 PM 68.0 °F 53.6 °F 60% 30.06 in 10.0 mi WSW 10.4 mph - N/A   Clear
1:15 PM 68.0 °F 53.6 °F 60% 30.06 in 10.0 mi WNW 8.1 mph - N/A   Clear
1:35 PM 68.0 °F 53.6 °F 60% 30.05 in 10.0 mi West 10.4 mph - N/A   Clear
1:55 PM 68.0 °F 51.8 °F 56% 30.05 in 10.0 mi West 8.1 mph - N/A   Clear
2:15 PM 64.4 °F 51.8 °F 64% 30.05 in 10.0 mi West 10.4 mph - N/A   Clear
2:35 PM 62.6 °F 51.8 °F 68% 30.04 in 10.0 mi WNW 5.8 mph - N/A   Clear
2:55 PM 62.6 °F 51.8 °F 68% 30.04 in 10.0 mi West 9.2 mph - N/A   Clear
3:15 PM 62.6 °F 51.8 °F 68% 30.04 in 10.0 mi West 8.1 mph - N/A   Clear
3:35 PM 62.6 °F 50.0 °F 63% 30.04 in 10.0 mi West 9.2 mph - N/A   Clear
3:55 PM 60.8 °F 48.2 °F 63% 30.04 in 10.0 mi WNW 6.9 mph - N/A   Clear
4:15 PM 60.8 °F 48.2 °F 63% 30.05 in 10.0 mi WNW 6.9 mph - N/A   Clear
4:35 PM 60.8 °F 46.4 °F 59% 30.05 in 10.0 mi WNW 6.9 mph - N/A   Clear
4:55 PM 60.8 °F 46.4 °F 59% 30.05 in 10.0 mi West 6.9 mph - N/A   Clear
5:15 PM 59.0 °F 48.2 °F 67% 30.06 in 10.0 mi West 4.6 mph - N/A   Clear
5:35 PM 59.0 °F 50.0 °F 72% 30.06 in 10.0 mi West 5.8 mph - N/A   Clear
5:55 PM 55.4 °F 48.2 °F 77% 30.06 in 10.0 mi West 3.5 mph - N/A   Clear
6:15 PM 53.6 °F 48.2 °F 82% 30.07 in 10.0 mi Calm Calm - N/A   Clear
6:35 PM 51.8 °F 48.2 °F 88% 30.07 in 10.0 mi Calm Calm - N/A   Clear
6:55 PM 50.0 °F 46.4 °F 87% 30.08 in 10.0 mi Calm Calm - N/A   Clear
7:15 PM 50.0 °F 46.4 °F 87% 30.09 in 10.0 mi Calm Calm - N/A   Clear
7:35 PM 48.2 °F 46.4 °F 93% 30.09 in 10.0 mi Calm Calm - N/A   Clear
7:55 PM 46.4 °F 46.4 °F 100% 30.09 in 10.0 mi Calm Calm - N/A   Clear
8:15 PM 46.4 °F 44.6 °F 93% 30.09 in 10.0 mi Calm Calm - N/A   Clear
8:35 PM 44.6 °F 44.6 °F 100% 30.10 in 10.0 mi Calm Calm - N/A   Clear
8:55 PM 44.6 °F 42.8 °F 93% 30.11 in 10.0 mi Calm Calm - N/A   Clear
9:15 PM 44.6 °F 42.8 °F 93% 30.11 in 10.0 mi Calm Calm - N/A   Clear
9:35 PM 42.8 °F 42.8 °F 100% 30.11 in 10.0 mi Calm Calm - N/A   Clear
9:55 PM 42.8 °F 42.8 °F 100% 30.12 in 10.0 mi Calm Calm - N/A   Clear
10:15 PM 42.8 °F 41.0 °F 93% 30.12 in 10.0 mi Calm Calm - N/A   Clear
10:35 PM 41.0 °F 41.0 °F 100% 30.12 in 10.0 mi Calm Calm - N/A   Clear
10:55 PM 41.0 °F 41.0 °F 100% 30.12 in 10.0 mi Calm Calm - N/A   Clear
11:15 PM 41.0 °F 41.0 °F 100% 30.12 in 10.0 mi Calm Calm - N/A   Clear
11:35 PM 41.0 °F 39.2 °F 93% 30.12 in 10.0 mi Calm Calm - N/A   Clear
11:55 PM 39.2 °F 39.2 °F 100% 30.12 in 10.0 mi Calm Calm - N/A   Clear